sensor_id;sensor_type;location;lat;lon;timestamp;pressure;altitude;pressure_sealevel;temperature;humidity
69219;BME280;56232;53.384;-2.732;2022-10-31T00:00:45;100823.77;;;9.92;47.72
69219;BME280;56232;53.384;-2.732;2022-10-31T00:03:10;100820.59;;;10.36;48.30
69219;BME280;56232;53.384;-2.732;2022-10-31T00:05:36;100822.83;;;10.40;48.35
69219;BME280;56232;53.384;-2.732;2022-10-31T00:08:02;100832.33;;;10.54;47.61
69219;BME280;56232;53.384;-2.732;2022-10-31T00:10:27;100831.42;;;10.12;48.26
69219;BME280;56232;53.384;-2.732;2022-10-31T00:12:53;100835.57;;;10.18;47.91
69219;BME280;56232;53.384;-2.732;2022-10-31T00:15:18;100836.38;;;10.70;48.53
69219;BME280;56232;53.384;-2.732;2022-10-31T00:17:44;100837.82;;;10.22;48.09
69219;BME280;56232;53.384;-2.732;2022-10-31T00:20:10;100839.21;;;10.75;48.64
69219;BME280;56232;53.384;-2.732;2022-10-31T00:22:35;100836.24;;;10.82;48.65
69219;BME280;56232;53.384;-2.732;2022-10-31T00:25:01;100834.75;;;10.83;48.90
69219;BME280;56232;53.384;-2.732;2022-10-31T00:27:26;100834.94;;;10.94;49.05
69219;BME280;56232;53.384;-2.732;2022-10-31T00:29:53;100839.53;;;11.68;48.72
69219;BME280;56232;53.384;-2.732;2022-10-31T00:32:18;100840.28;;;10.68;49.16
69219;BME280;56232;53.384;-2.732;2022-10-31T00:34:43;100839.02;;;10.98;49.09
69219;BME280;56232;53.384;-2.732;2022-10-31T00:37:09;100838.49;;;11.19;48.94
69219;BME280;56232;53.384;-2.732;2022-10-31T00:39:34;100839.73;;;11.49;48.46
69219;BME280;56232;53.384;-2.732;2022-10-31T00:42:00;100840.80;;;11.79;48.89
69219;BME280;56232;53.384;-2.732;2022-10-31T00:44:26;100842.74;;;10.93;48.52
69219;BME280;56232;53.384;-2.732;2022-10-31T00:46:52;100845.33;;;12.08;48.65
69219;BME280;56232;53.384;-2.732;2022-10-31T00:49:17;100843.86;;;12.01;48.24
69219;BME280;56232;53.384;-2.732;2022-10-31T00:51:42;100843.28;;;12.25;48.40
69219;BME280;56232;53.384;-2.732;2022-10-31T00:54:08;100852.72;;;11.56;48.63
69219;BME280;56232;53.384;-2.732;2022-10-31T00:56:34;100851.59;;;11.00;48.55
69219;BME280;56232;53.384;-2.732;2022-10-31T00:58:59;100849.22;;;11.48;48.87
69219;BME280;56232;53.384;-2.732;2022-10-31T01:01:25;100849.77;;;11.38;48.79
69219;BME280;56232;53.384;-2.732;2022-10-31T01:03:51;100853.48;;;10.79;48.96
69219;BME280;56232;53.384;-2.732;2022-10-31T01:06:15;100851.17;;;11.18;48.56
69219;BME280;56232;53.384;-2.732;2022-10-31T01:08:41;100853.03;;;11.08;48.96
69219;BME280;56232;53.384;-2.732;2022-10-31T01:11:09;100848.91;;;10.95;48.85
69219;BME280;56232;53.384;-2.732;2022-10-31T01:13:33;100847.69;;;10.82;48.90
69219;BME280;56232;53.384;-2.732;2022-10-31T01:15:58;100847.88;;;11.19;48.51
69219;BME280;56232;53.384;-2.732;2022-10-31T01:18:23;100853.43;;;10.59;48.62
69219;BME280;56232;53.384;-2.732;2022-10-31T01:20:57;100854.62;;;10.48;48.68
69219;BME280;56232;53.384;-2.732;2022-10-31T01:23:14;100858.27;;;10.39;48.52
69219;BME280;56232;53.384;-2.732;2022-10-31T01:25:40;100858.58;;;11.50;48.23
69219;BME280;56232;53.384;-2.732;2022-10-31T01:28:05;100858.41;;;10.26;49.05
69219;BME280;56232;53.384;-2.732;2022-10-31T01:30:31;100861.89;;;9.73;49.26
69219;BME280;56232;53.384;-2.732;2022-10-31T01:32:57;100865.67;;;10.69;48.91
69219;BME280;56232;53.384;-2.732;2022-10-31T01:35:22;100864.82;;;10.66;48.18
69219;BME280;56232;53.384;-2.732;2022-10-31T01:37:47;100866.78;;;10.56;48.85
69219;BME280;56232;53.384;-2.732;2022-10-31T01:40:13;100866.06;;;10.47;48.85
69219;BME280;56232;53.384;-2.732;2022-10-31T01:42:38;100868.82;;;11.03;49.03
69219;BME280;56232;53.384;-2.732;2022-10-31T01:45:05;100866.69;;;10.96;48.85
69219;BME280;56232;53.384;-2.732;2022-10-31T01:47:35;100864.99;;;10.89;49.03
69219;BME280;56232;53.384;-2.732;2022-10-31T01:49:58;100862.43;;;9.76;48.98
69219;BME280;56232;53.384;-2.732;2022-10-31T01:52:24;100859.68;;;9.71;48.23
69219;BME280;56232;53.384;-2.732;2022-10-31T01:54:51;100857.53;;;10.84;47.74
69219;BME280;56232;53.384;-2.732;2022-10-31T01:57:14;100850.78;;;10.16;48.96
69219;BME280;56232;53.384;-2.732;2022-10-31T01:59:41;100849.02;;;10.70;48.99
69219;BME280;56232;53.384;-2.732;2022-10-31T02:02:03;100846.11;;;10.07;49.43
69219;BME280;56232;53.384;-2.732;2022-10-31T02:04:29;100843.84;;;10.05;49.17
69219;BME280;56232;53.384;-2.732;2022-10-31T02:06:57;100839.53;;;10.68;49.29
69219;BME280;56232;53.384;-2.732;2022-10-31T02:09:19;100836.66;;;10.03;49.49
69219;BME280;56232;53.384;-2.732;2022-10-31T02:11:45;100838.97;;;10.62;49.40
69219;BME280;56232;53.384;-2.732;2022-10-31T02:14:10;100834.36;;;9.99;49.64
69219;BME280;56232;53.384;-2.732;2022-10-31T02:16:36;100831.26;;;9.98;49.62
69219;BME280;56232;53.384;-2.732;2022-10-31T02:19:01;100834.87;;;10.61;48.44
69219;BME280;56232;53.384;-2.732;2022-10-31T02:21:33;100839.75;;;10.03;48.98
69219;BME280;56232;53.384;-2.732;2022-10-31T02:26:32;100838.99;;;9.99;49.34
69219;BME280;56232;53.384;-2.732;2022-10-31T02:28:59;100840.19;;;10.00;49.67
69219;BME280;56232;53.384;-2.732;2022-10-31T02:31:20;100845.66;;;10.57;49.63
69219;BME280;56232;53.384;-2.732;2022-10-31T02:33:38;100844.55;;;10.53;49.60
69219;BME280;56232;53.384;-2.732;2022-10-31T02:36:04;100839.92;;;10.49;48.67
69219;BME280;56232;53.384;-2.732;2022-10-31T02:38:35;100835.55;;;9.90;49.66
69219;BME280;56232;53.384;-2.732;2022-10-31T02:40:59;100833.38;;;9.92;49.53
69219;BME280;56232;53.384;-2.732;2022-10-31T02:43:21;100836.63;;;9.76;49.50
69219;BME280;56232;53.384;-2.732;2022-10-31T02:45:47;100839.02;;;9.64;49.71
69219;BME280;56232;53.384;-2.732;2022-10-31T02:48:12;100836.71;;;10.26;49.21
69219;BME280;56232;53.384;-2.732;2022-10-31T02:50:35;100835.01;;;9.48;49.32
69219;BME280;56232;53.384;-2.732;2022-10-31T02:53:00;100835.18;;;9.89;49.66
69219;BME280;56232;53.384;-2.732;2022-10-31T02:57:52;100831.96;;;9.31;49.41
69219;BME280;56232;53.384;-2.732;2022-10-31T03:00:16;100836.87;;;9.83;49.84
69219;BME280;56232;53.384;-2.732;2022-10-31T03:02:52;100840.70;;;9.31;49.71
69219;BME280;56232;53.384;-2.732;2022-10-31T03:05:18;100838.89;;;9.81;49.67
69219;BME280;56232;53.384;-2.732;2022-10-31T03:07:38;100835.43;;;9.23;49.62
69219;BME280;56232;53.384;-2.732;2022-10-31T03:10:04;100834.65;;;10.24;50.18
69219;BME280;56232;53.384;-2.732;2022-10-31T03:12:26;100828.51;;;10.30;49.76
69219;BME280;56232;53.384;-2.732;2022-10-31T03:14:53;100814.70;;;9.26;49.73
69219;BME280;56232;53.384;-2.732;2022-10-31T03:17:17;100817.66;;;9.37;49.49
69219;BME280;56232;53.384;-2.732;2022-10-31T03:19:41;100821.17;;;9.99;49.14
69219;BME280;56232;53.384;-2.732;2022-10-31T03:22:07;100819.08;;;10.02;49.48
69219;BME280;56232;53.384;-2.732;2022-10-31T03:24:31;100820.78;;;9.51;49.58
69219;BME280;56232;53.384;-2.732;2022-10-31T03:26:57;100823.09;;;10.17;49.53
69219;BME280;56232;53.384;-2.732;2022-10-31T03:29:22;100817.85;;;9.52;49.38
69219;BME280;56232;53.384;-2.732;2022-10-31T03:31:47;100811.85;;;10.07;49.26
69219;BME280;56232;53.384;-2.732;2022-10-31T03:34:12;100813.81;;;9.52;48.78
69219;BME280;56232;53.384;-2.732;2022-10-31T03:36:38;100813.46;;;9.55;48.70
69219;BME280;56232;53.384;-2.732;2022-10-31T03:39:04;100814.63;;;10.16;48.83
69219;BME280;56232;53.384;-2.732;2022-10-31T03:41:29;100818.82;;;10.10;48.61
69219;BME280;56232;53.384;-2.732;2022-10-31T03:43:57;100816.52;;;10.03;48.56
69219;BME280;56232;53.384;-2.732;2022-10-31T03:46:18;100817.41;;;9.97;48.83
69219;BME280;56232;53.384;-2.732;2022-10-31T03:48:43;100810.24;;;10.03;48.00
69219;BME280;56232;53.384;-2.732;2022-10-31T03:51:14;100805.58;;;10.02;48.83
69219;BME280;56232;53.384;-2.732;2022-10-31T03:53:40;100801.61;;;10.05;49.17
69219;BME280;56232;53.384;-2.732;2022-10-31T03:56:06;100801.38;;;10.07;48.44
69219;BME280;56232;53.384;-2.732;2022-10-31T03:58:28;100800.87;;;10.07;48.42
69219;BME280;56232;53.384;-2.732;2022-10-31T04:00:55;100806.91;;;10.00;48.78
69219;BME280;56232;53.384;-2.732;2022-10-31T04:03:21;100806.67;;;10.07;48.94
69219;BME280;56232;53.384;-2.732;2022-10-31T04:05:46;100806.74;;;10.14;47.88
69219;BME280;56232;53.384;-2.732;2022-10-31T04:08:10;100811.29;;;10.03;48.82
69219;BME280;56232;53.384;-2.732;2022-10-31T04:10:36;100806.17;;;9.49;49.14
69219;BME280;56232;53.384;-2.732;2022-10-31T04:13:03;100806.24;;;9.13;48.58
69219;BME280;56232;53.384;-2.732;2022-10-31T04:15:26;100804.98;;;10.26;48.85
69219;BME280;56232;53.384;-2.732;2022-10-31T04:17:55;100801.30;;;10.16;48.82
69219;BME280;56232;53.384;-2.732;2022-10-31T04:20:17;100800.71;;;9.58;49.51
69219;BME280;56232;53.384;-2.732;2022-10-31T04:22:43;100794.56;;;10.17;48.69
69219;BME280;56232;53.384;-2.732;2022-10-31T04:25:08;100792.59;;;10.12;49.32
69219;BME280;56232;53.384;-2.732;2022-10-31T04:27:34;100788.27;;;10.13;49.21
69219;BME280;56232;53.384;-2.732;2022-10-31T04:30:00;100787.67;;;10.15;49.03
69219;BME280;56232;53.384;-2.732;2022-10-31T04:32:25;100781.85;;;10.13;48.99
69219;BME280;56232;53.384;-2.732;2022-10-31T04:34:51;100779.44;;;9.00;49.06
69219;BME280;56232;53.384;-2.732;2022-10-31T04:37:16;100781.63;;;9.50;48.82
69219;BME280;56232;53.384;-2.732;2022-10-31T04:39:41;100781.74;;;9.38;49.64
69219;BME280;56232;53.384;-2.732;2022-10-31T04:42:07;100777.42;;;9.40;49.23
69219;BME280;56232;53.384;-2.732;2022-10-31T04:44:33;100780.32;;;10.04;49.69
69219;BME280;56232;53.384;-2.732;2022-10-31T04:46:58;100773.78;;;9.44;49.35
69219;BME280;56232;53.384;-2.732;2022-10-31T04:49:23;100773.59;;;10.09;49.39
69219;BME280;56232;53.384;-2.732;2022-10-31T04:51:49;100779.82;;;10.11;49.32
69219;BME280;56232;53.384;-2.732;2022-10-31T04:54:14;100779.76;;;10.03;49.23
69219;BME280;56232;53.384;-2.732;2022-10-31T04:56:40;100784.36;;;10.07;48.95
69219;BME280;56232;53.384;-2.732;2022-10-31T04:59:06;100783.81;;;10.06;49.24
69219;BME280;56232;53.384;-2.732;2022-10-31T05:01:31;100779.93;;;9.48;48.90
69219;BME280;56232;53.384;-2.732;2022-10-31T05:03:56;100781.51;;;9.54;49.39
69219;BME280;56232;53.384;-2.732;2022-10-31T05:06:22;100788.36;;;9.59;48.93
69219;BME280;56232;53.384;-2.732;2022-10-31T05:08:48;100775.65;;;10.07;49.66
69219;BME280;56232;53.384;-2.732;2022-10-31T05:11:13;100776.38;;;10.09;48.42
69219;BME280;56232;53.384;-2.732;2022-10-31T05:13:39;100780.66;;;10.49;48.87
69219;BME280;56232;53.384;-2.732;2022-10-31T05:16:05;100777.44;;;10.00;49.30
69219;BME280;56232;53.384;-2.732;2022-10-31T05:18:31;100775.47;;;9.97;49.26
69219;BME280;56232;53.384;-2.732;2022-10-31T05:20:56;100776.91;;;9.46;49.37
69219;BME280;56232;53.384;-2.732;2022-10-31T05:23:21;100775.02;;;9.55;49.88
69219;BME280;56232;53.384;-2.732;2022-10-31T05:25:47;100763.79;;;10.23;48.80
69219;BME280;56232;53.384;-2.732;2022-10-31T05:28:12;100772.95;;;10.19;49.52
69219;BME280;56232;53.384;-2.732;2022-10-31T05:30:38;100769.75;;;10.17;49.71
69219;BME280;56232;53.384;-2.732;2022-10-31T05:33:03;100766.11;;;9.63;49.53
69219;BME280;56232;53.384;-2.732;2022-10-31T05:35:30;100759.78;;;9.68;49.43
69219;BME280;56232;53.384;-2.732;2022-10-31T05:37:55;100758.92;;;10.32;48.36
69219;BME280;56232;53.384;-2.732;2022-10-31T05:40:20;100755.05;;;10.25;49.16
69219;BME280;56232;53.384;-2.732;2022-10-31T05:42:45;100744.62;;;9.70;47.91
69219;BME280;56232;53.384;-2.732;2022-10-31T05:45:12;100744.73;;;10.28;48.53
69219;BME280;56232;53.384;-2.732;2022-10-31T05:47:36;100741.78;;;9.70;48.68
69219;BME280;56232;53.384;-2.732;2022-10-31T05:50:01;100741.35;;;10.31;48.90
69219;BME280;56232;53.384;-2.732;2022-10-31T05:52:27;100741.22;;;9.79;48.38
69219;BME280;56232;53.384;-2.732;2022-10-31T05:54:53;100733.26;;;9.86;48.83
69219;BME280;56232;53.384;-2.732;2022-10-31T05:57:17;100733.02;;;9.95;49.49
69219;BME280;56232;53.384;-2.732;2022-10-31T05:59:43;100725.74;;;9.98;48.76
69219;BME280;56232;53.384;-2.732;2022-10-31T06:02:09;100733.17;;;9.89;48.48
69219;BME280;56232;53.384;-2.732;2022-10-31T06:04:34;100727.12;;;10.52;48.70
69219;BME280;56232;53.384;-2.732;2022-10-31T06:06:59;100730.03;;;9.92;49.10
69219;BME280;56232;53.384;-2.732;2022-10-31T06:09:25;100729.07;;;10.51;49.52
69219;BME280;56232;53.384;-2.732;2022-10-31T06:11:51;100723.27;;;10.56;49.59
69219;BME280;56232;53.384;-2.732;2022-10-31T06:14:16;100722.48;;;9.98;49.30
69219;BME280;56232;53.384;-2.732;2022-10-31T06:16:41;100726.79;;;10.60;49.39
69219;BME280;56232;53.384;-2.732;2022-10-31T06:19:07;100723.18;;;10.03;49.41
69219;BME280;56232;53.384;-2.732;2022-10-31T06:21:32;100727.20;;;10.63;49.56
69219;BME280;56232;53.384;-2.732;2022-10-31T06:23:58;100724.97;;;10.70;49.07
69219;BME280;56232;53.384;-2.732;2022-10-31T06:26:23;100720.87;;;10.71;49.28
69219;BME280;56232;53.384;-2.732;2022-10-31T06:28:48;100720.73;;;10.73;48.80
69219;BME280;56232;53.384;-2.732;2022-10-31T06:31:14;100715.71;;;10.14;49.52
69219;BME280;56232;53.384;-2.732;2022-10-31T06:33:41;100711.49;;;10.88;49.65
69219;BME280;56232;53.384;-2.732;2022-10-31T06:36:05;100715.42;;;9.71;49.29
69219;BME280;56232;53.384;-2.732;2022-10-31T06:38:31;100716.85;;;9.80;49.75
69219;BME280;56232;53.384;-2.732;2022-10-31T06:40:56;100710.29;;;10.31;49.08
69219;BME280;56232;53.384;-2.732;2022-10-31T06:43:21;100711.13;;;10.41;48.70
69219;BME280;56232;53.384;-2.732;2022-10-31T06:45:47;100712.36;;;10.40;49.63
69219;BME280;56232;53.384;-2.732;2022-10-31T06:48:12;100711.23;;;9.88;49.21
69219;BME280;56232;53.384;-2.732;2022-10-31T06:50:38;100710.19;;;9.85;49.64
69219;BME280;56232;53.384;-2.732;2022-10-31T06:53:03;100712.85;;;9.91;49.98
69219;BME280;56232;53.384;-2.732;2022-10-31T06:55:28;100705.22;;;10.49;49.92
69219;BME280;56232;53.384;-2.732;2022-10-31T06:57:57;100706.05;;;11.14;48.99
69219;BME280;56232;53.384;-2.732;2022-10-31T07:00:20;100710.68;;;10.51;49.45
69219;BME280;56232;53.384;-2.732;2022-10-31T07:02:54;100713.35;;;9.97;49.69
69219;BME280;56232;53.384;-2.732;2022-10-31T07:05:10;100711.32;;;10.15;49.08
69219;BME280;56232;53.384;-2.732;2022-10-31T07:07:35;100716.26;;;10.20;49.83
69219;BME280;56232;53.384;-2.732;2022-10-31T07:10:01;100719.14;;;10.83;49.97
69219;BME280;56232;53.384;-2.732;2022-10-31T07:12:27;100721.19;;;10.37;49.99
69219;BME280;56232;53.384;-2.732;2022-10-31T07:14:54;100723.08;;;10.44;50.02
69219;BME280;56232;53.384;-2.732;2022-10-31T07:17:18;100720.86;;;10.49;49.63
69219;BME280;56232;53.384;-2.732;2022-10-31T07:19:43;100725.52;;;11.05;49.23
69219;BME280;56232;53.384;-2.732;2022-10-31T07:22:08;100724.33;;;10.58;49.27
69219;BME280;56232;53.384;-2.732;2022-10-31T07:24:33;100720.51;;;10.76;49.54
69219;BME280;56232;53.384;-2.732;2022-10-31T07:26:59;100728.01;;;10.92;48.36
69219;BME280;56232;53.384;-2.732;2022-10-31T07:29:25;100726.67;;;11.04;47.90
69219;BME280;56232;53.384;-2.732;2022-10-31T07:31:51;100728.37;;;11.47;48.46
69219;BME280;56232;53.384;-2.732;2022-10-31T07:34:16;100728.40;;;10.90;48.78
69219;BME280;56232;53.384;-2.732;2022-10-31T07:36:41;100731.08;;;11.45;48.27
69219;BME280;56232;53.384;-2.732;2022-10-31T07:39:07;100730.31;;;10.44;48.64
69219;BME280;56232;53.384;-2.732;2022-10-31T07:41:33;100736.45;;;11.09;48.30
69219;BME280;56232;53.384;-2.732;2022-10-31T07:43:58;100739.59;;;11.16;47.75
69219;BME280;56232;53.384;-2.732;2022-10-31T07:46:24;100743.55;;;11.31;48.93
69219;BME280;56232;53.384;-2.732;2022-10-31T07:48:49;100742.16;;;11.41;48.75
69219;BME280;56232;53.384;-2.732;2022-10-31T07:51:15;100742.92;;;11.69;49.03
69219;BME280;56232;53.384;-2.732;2022-10-31T07:53:40;100739.20;;;10.91;48.81
69219;BME280;56232;53.384;-2.732;2022-10-31T07:56:06;100741.96;;;12.06;49.00
69219;BME280;56232;53.384;-2.732;2022-10-31T07:58:31;100739.76;;;12.76;47.77
69219;BME280;56232;53.384;-2.732;2022-10-31T08:00:57;100743.95;;;12.06;48.12
69219;BME280;56232;53.384;-2.732;2022-10-31T08:03:22;100738.79;;;11.89;48.05
69219;BME280;56232;53.384;-2.732;2022-10-31T08:05:48;100739.06;;;12.04;48.28
69219;BME280;56232;53.384;-2.732;2022-10-31T08:08:14;100733.81;;;12.22;48.81
69219;BME280;56232;53.384;-2.732;2022-10-31T08:10:39;100737.89;;;12.57;47.72
69219;BME280;56232;53.384;-2.732;2022-10-31T08:13:06;100746.11;;;12.85;47.26
69219;BME280;56232;53.384;-2.732;2022-10-31T08:15:30;100737.77;;;12.53;47.66
69219;BME280;56232;53.384;-2.732;2022-10-31T08:17:55;100734.12;;;13.34;47.70
69219;BME280;56232;53.384;-2.732;2022-10-31T08:20:21;100734.28;;;13.56;47.83
69219;BME280;56232;53.384;-2.732;2022-10-31T08:22:53;100742.47;;;13.15;47.70
69219;BME280;56232;53.384;-2.732;2022-10-31T08:25:12;100740.11;;;13.81;47.21
69219;BME280;56232;53.384;-2.732;2022-10-31T08:27:37;100745.94;;;13.88;46.90
69219;BME280;56232;53.384;-2.732;2022-10-31T08:30:03;100742.23;;;13.26;47.18
69219;BME280;56232;53.384;-2.732;2022-10-31T08:32:28;100737.90;;;13.01;47.08
69219;BME280;56232;53.384;-2.732;2022-10-31T08:34:54;100741.74;;;14.11;45.84
69219;BME280;56232;53.384;-2.732;2022-10-31T08:37:20;100739.88;;;13.73;45.39
69219;BME280;56232;53.384;-2.732;2022-10-31T08:39:46;100737.50;;;13.45;47.07
69219;BME280;56232;53.384;-2.732;2022-10-31T08:42:11;100739.65;;;14.03;45.60
69219;BME280;56232;53.384;-2.732;2022-10-31T08:44:37;100739.06;;;13.49;46.37
69219;BME280;56232;53.384;-2.732;2022-10-31T08:47:02;100750.82;;;13.79;45.50
69219;BME280;56232;53.384;-2.732;2022-10-31T08:49:28;100745.58;;;13.95;46.52
69219;BME280;56232;53.384;-2.732;2022-10-31T08:51:54;100739.59;;;14.31;46.22
69219;BME280;56232;53.384;-2.732;2022-10-31T08:54:19;100733.63;;;13.51;45.22
69219;BME280;56232;53.384;-2.732;2022-10-31T08:56:45;100730.51;;;14.65;45.91
69219;BME280;56232;53.384;-2.732;2022-10-31T08:59:10;100727.39;;;14.71;44.93
69219;BME280;56232;53.384;-2.732;2022-10-31T09:01:35;100728.37;;;13.81;45.39
69219;BME280;56232;53.384;-2.732;2022-10-31T09:04:01;100721.61;;;14.54;45.29
69219;BME280;56232;53.384;-2.732;2022-10-31T09:06:26;100722.36;;;14.74;46.27
69219;BME280;56232;53.384;-2.732;2022-10-31T09:08:53;100719.04;;;15.03;46.93
69219;BME280;56232;53.384;-2.732;2022-10-31T09:11:17;100709.50;;;14.12;46.31
69219;BME280;56232;53.384;-2.732;2022-10-31T09:13:43;100708.41;;;14.16;46.07
69219;BME280;56232;53.384;-2.732;2022-10-31T09:16:08;100713.66;;;15.35;45.34
69219;BME280;56232;53.384;-2.732;2022-10-31T09:18:34;100715.47;;;14.15;44.63
69219;BME280;56232;53.384;-2.732;2022-10-31T09:21:00;100712.97;;;14.52;44.88
69219;BME280;56232;53.384;-2.732;2022-10-31T09:23:25;100710.33;;;15.11;45.40
69219;BME280;56232;53.384;-2.732;2022-10-31T09:25:52;100704.68;;;14.59;45.67
69219;BME280;56232;53.384;-2.732;2022-10-31T09:28:18;100697.95;;;14.17;45.40
69219;BME280;56232;53.384;-2.732;2022-10-31T09:30:42;100692.34;;;14.11;45.42
69219;BME280;56232;53.384;-2.732;2022-10-31T09:33:09;100695.69;;;13.93;45.37
69219;BME280;56232;53.384;-2.732;2022-10-31T09:35:33;100688.63;;;14.41;46.17
69219;BME280;56232;53.384;-2.732;2022-10-31T09:38:00;100687.26;;;14.38;46.24
69219;BME280;56232;53.384;-2.732;2022-10-31T09:40:27;100690.65;;;14.02;45.74
69219;BME280;56232;53.384;-2.732;2022-10-31T09:42:55;100684.65;;;14.09;45.96
69219;BME280;56232;53.384;-2.732;2022-10-31T09:45:18;100690.77;;;14.07;45.69
69219;BME280;56232;53.384;-2.732;2022-10-31T09:47:50;100687.72;;;14.74;45.28
69219;BME280;56232;53.384;-2.732;2022-10-31T09:50:14;100686.52;;;14.93;46.05
69219;BME280;56232;53.384;-2.732;2022-10-31T09:52:33;100690.12;;;14.64;46.09
69219;BME280;56232;53.384;-2.732;2022-10-31T09:55:00;100688.42;;;14.81;45.37
69219;BME280;56232;53.384;-2.732;2022-10-31T09:57:25;100688.18;;;15.04;46.29
69219;BME280;56232;53.384;-2.732;2022-10-31T09:59:49;100687.72;;;15.37;46.63
69219;BME280;56232;53.384;-2.732;2022-10-31T10:02:19;100687.20;;;15.44;43.51
69219;BME280;56232;53.384;-2.732;2022-10-31T10:04:44;100687.25;;;15.45;44.51
69219;BME280;56232;53.384;-2.732;2022-10-31T10:07:13;100684.44;;;14.84;43.82
69219;BME280;56232;53.384;-2.732;2022-10-31T10:09:30;100683.92;;;14.53;44.66
69219;BME280;56232;53.384;-2.732;2022-10-31T10:12:04;100680.84;;;15.32;44.86
69219;BME280;56232;53.384;-2.732;2022-10-31T10:14:34;100676.83;;;15.66;44.16
69219;BME280;56232;53.384;-2.732;2022-10-31T10:17:00;100680.15;;;16.33;43.54
69219;BME280;56232;53.384;-2.732;2022-10-31T10:19:24;100677.74;;;16.16;43.66
69219;BME280;56232;53.384;-2.732;2022-10-31T10:21:43;100681.98;;;15.50;44.00
69219;BME280;56232;53.384;-2.732;2022-10-31T10:24:15;100682.36;;;15.14;44.50
69219;BME280;56232;53.384;-2.732;2022-10-31T10:26:35;100680.03;;;15.79;44.39
69219;BME280;56232;53.384;-2.732;2022-10-31T10:28:58;100680.25;;;16.50;43.52
69219;BME280;56232;53.384;-2.732;2022-10-31T10:31:24;100674.48;;;15.30;43.95
69219;BME280;56232;53.384;-2.732;2022-10-31T10:33:55;100676.75;;;15.26;43.46
69219;BME280;56232;53.384;-2.732;2022-10-31T10:36:16;100671.75;;;16.21;44.56
69219;BME280;56232;53.384;-2.732;2022-10-31T10:38:43;100670.33;;;14.91;43.65
69219;BME280;56232;53.384;-2.732;2022-10-31T10:41:05;100670.47;;;15.23;44.48
69219;BME280;56232;53.384;-2.732;2022-10-31T10:43:32;100673.25;;;15.81;44.78
69219;BME280;56232;53.384;-2.732;2022-10-31T10:46:04;100671.02;;;15.16;44.85
69219;BME280;56232;53.384;-2.732;2022-10-31T10:48:27;100670.00;;;14.64;44.16
69219;BME280;56232;53.384;-2.732;2022-10-31T10:50:48;100668.61;;;15.76;44.90
69219;BME280;56232;53.384;-2.732;2022-10-31T10:53:22;100663.89;;;15.04;45.41
69219;BME280;56232;53.384;-2.732;2022-10-31T10:55:39;100660.32;;;15.00;44.41
69219;BME280;56232;53.384;-2.732;2022-10-31T10:58:03;100663.66;;;14.88;44.40
69219;BME280;56232;53.384;-2.732;2022-10-31T11:00:36;100660.76;;;14.79;45.23
69219;BME280;56232;53.384;-2.732;2022-10-31T11:02:54;100656.86;;;15.35;44.57
69219;BME280;56232;53.384;-2.732;2022-10-31T11:05:24;100650.41;;;14.47;44.66
69219;BME280;56232;53.384;-2.732;2022-10-31T11:07:44;100647.37;;;14.96;44.69
69219;BME280;56232;53.384;-2.732;2022-10-31T11:10:13;100648.23;;;14.78;45.93
69219;BME280;56232;53.384;-2.732;2022-10-31T11:12:35;100641.29;;;14.77;45.15
69219;BME280;56232;53.384;-2.732;2022-10-31T11:15:06;100641.25;;;14.73;45.99
69219;BME280;56232;53.384;-2.732;2022-10-31T11:17:29;100639.49;;;14.67;46.12
69219;BME280;56232;53.384;-2.732;2022-10-31T11:20:00;100639.98;;;14.72;45.83
69219;BME280;56232;53.384;-2.732;2022-10-31T11:22:17;100637.25;;;14.82;46.50
69219;BME280;56232;53.384;-2.732;2022-10-31T11:24:43;100632.38;;;14.22;45.68
69219;BME280;56232;53.384;-2.732;2022-10-31T11:27:15;100627.26;;;14.88;44.69
69219;BME280;56232;53.384;-2.732;2022-10-31T11:29:34;100626.39;;;14.67;45.35
69219;BME280;56232;53.384;-2.732;2022-10-31T11:32:00;100621.17;;;14.64;46.71
69219;BME280;56232;53.384;-2.732;2022-10-31T11:34:29;100623.20;;;14.74;46.32
69219;BME280;56232;53.384;-2.732;2022-10-31T11:36:50;100620.21;;;14.71;45.20
69219;BME280;56232;53.384;-2.732;2022-10-31T11:39:18;100620.23;;;15.11;46.29
69219;BME280;56232;53.384;-2.732;2022-10-31T11:41:41;100619.01;;;14.74;45.60
69219;BME280;56232;53.384;-2.732;2022-10-31T11:44:12;100627.44;;;14.63;45.65
69219;BME280;56232;53.384;-2.732;2022-10-31T11:46:35;100624.54;;;14.71;46.85
69219;BME280;56232;53.384;-2.732;2022-10-31T11:48:58;100621.63;;;14.87;46.89
69219;BME280;56232;53.384;-2.732;2022-10-31T11:51:26;100618.94;;;15.08;46.34
69219;BME280;56232;53.384;-2.732;2022-10-31T11:53:52;100613.47;;;15.14;44.69
69219;BME280;56232;53.384;-2.732;2022-10-31T11:56:16;100613.14;;;15.11;46.19
69219;BME280;56232;53.384;-2.732;2022-10-31T11:58:41;100613.04;;;15.29;44.88
69219;BME280;56232;53.384;-2.732;2022-10-31T12:03:43;100592.68;;;14.42;46.06
69219;BME280;56232;53.384;-2.732;2022-10-31T12:06:01;100587.11;;;15.55;44.40
69219;BME280;56232;53.384;-2.732;2022-10-31T12:08:26;100586.44;;;15.45;44.77
69219;BME280;56232;53.384;-2.732;2022-10-31T12:10:55;100580.97;;;15.52;44.67
69219;BME280;56232;53.384;-2.732;2022-10-31T12:15:43;100577.16;;;15.89;45.11
69219;BME280;56232;53.384;-2.732;2022-10-31T12:18:17;100582.22;;;14.72;44.43
69219;BME280;56232;53.384;-2.732;2022-10-31T12:20:39;100577.59;;;15.93;45.14
69219;BME280;56232;53.384;-2.732;2022-10-31T12:23:03;100572.91;;;14.74;45.09
69219;BME280;56232;53.384;-2.732;2022-10-31T12:25:31;100572.78;;;15.28;45.17
69219;BME280;56232;53.384;-2.732;2022-10-31T12:30:17;100568.62;;;14.79;45.20
69219;BME280;56232;53.384;-2.732;2022-10-31T12:32:51;100559.18;;;16.08;46.01
69219;BME280;56232;53.384;-2.732;2022-10-31T12:35:17;100554.44;;;15.13;45.06
69219;BME280;56232;53.384;-2.732;2022-10-31T12:37:41;100549.12;;;15.64;44.50
69219;BME280;56232;53.384;-2.732;2022-10-31T12:40:03;100543.62;;;15.33;44.29
69219;BME280;56232;53.384;-2.732;2022-10-31T12:42:29;100536.84;;;15.48;45.36
69219;BME280;56232;53.384;-2.732;2022-10-31T12:44:59;100538.68;;;15.61;44.34